sensor_id;sensor_type;location;lat;lon;timestamp;P1;durP1;ratioP1;P2;durP2;ratioP2
3141;SDS011;1581;51.568;6.998;2022-07-29T00:02:06;1.42;;;0.73;;
3141;SDS011;1581;51.568;6.998;2022-07-29T00:04:34;0.90;;;0.90;;
3141;SDS011;1581;51.568;6.998;2022-07-29T00:07:02;10.60;;;1.20;;
3141;SDS011;1581;51.568;6.998;2022-07-29T00:09:29;2.65;;;1.17;;
3141;SDS011;1581;51.568;6.998;2022-07-29T00:11:58;2.50;;;1.20;;
3141;SDS011;1581;51.568;6.998;2022-07-29T00:14:29;1.27;;;0.80;;
3141;SDS011;1581;51.568;6.998;2022-07-29T00:16:57;2.83;;;0.95;;
3141;SDS011;1581;51.568;6.998;2022-07-29T00:19:25;4.35;;;0.93;;
3141;SDS011;1581;51.568;6.998;2022-07-29T00:21:53;2.15;;;0.80;;
3141;SDS011;1581;51.568;6.998;2022-07-29T00:24:21;2.45;;;1.27;;
3141;SDS011;1581;51.568;6.998;2022-07-29T00:26:48;6.57;;;1.05;;
3141;SDS011;1581;51.568;6.998;2022-07-29T00:29:16;3.95;;;1.30;;
3141;SDS011;1581;51.568;6.998;2022-07-29T00:31:45;2.53;;;1.00;;
3141;SDS011;1581;51.568;6.998;2022-07-29T00:34:13;2.22;;;1.10;;
3141;SDS011;1581;51.568;6.998;2022-07-29T00:36:55;2.63;;;0.93;;
3141;SDS011;1581;51.568;6.998;2022-07-29T00:39:23;3.33;;;1.10;;
3141;SDS011;1581;51.568;6.998;2022-07-29T00:41:50;3.88;;;1.30;;
3141;SDS011;1581;51.568;6.998;2022-07-29T00:44:19;1.92;;;0.93;;
3141;SDS011;1581;51.568;6.998;2022-07-29T00:46:48;3.70;;;1.02;;
3141;SDS011;1581;51.568;6.998;2022-07-29T00:49:16;8.10;;;2.00;;
3141;SDS011;1581;51.568;6.998;2022-07-29T00:51:43;1.10;;;1.00;;
3141;SDS011;1581;51.568;6.998;2022-07-29T00:54:11;2.78;;;1.00;;
3141;SDS011;1581;51.568;6.998;2022-07-29T00:56:39;4.55;;;2.03;;
3141;SDS011;1581;51.568;6.998;2022-07-29T00:59:07;10.02;;;1.20;;
3141;SDS011;1581;51.568;6.998;2022-07-29T01:01:34;0.70;;;0.70;;
3141;SDS011;1581;51.568;6.998;2022-07-29T01:04:04;17.58;;;1.23;;
3141;SDS011;1581;51.568;6.998;2022-07-29T01:06:33;7.28;;;0.93;;
3141;SDS011;1581;51.568;6.998;2022-07-29T01:09:02;4.60;;;1.45;;
3141;SDS011;1581;51.568;6.998;2022-07-29T01:11:31;3.33;;;1.85;;
3141;SDS011;1581;51.568;6.998;2022-07-29T01:13:59;6.53;;;1.02;;
3141;SDS011;1581;51.568;6.998;2022-07-29T01:16:28;6.82;;;1.25;;
3141;SDS011;1581;51.568;6.998;2022-07-29T01:19:07;4.68;;;1.10;;
3141;SDS011;1581;51.568;6.998;2022-07-29T01:21:55;1.63;;;1.20;;
3141;SDS011;1581;51.568;6.998;2022-07-29T01:24:39;0.85;;;0.85;;
3141;SDS011;1581;51.568;6.998;2022-07-29T01:27:32;1.85;;;0.90;;
3141;SDS011;1581;51.568;6.998;2022-07-29T01:30:16;2.67;;;1.70;;
3141;SDS011;1581;51.568;6.998;2022-07-29T01:32:44;3.05;;;1.02;;
3141;SDS011;1581;51.568;6.998;2022-07-29T01:35:17;3.75;;;1.20;;
3141;SDS011;1581;51.568;6.998;2022-07-29T01:37:50;3.72;;;1.13;;
3141;SDS011;1581;51.568;6.998;2022-07-29T01:40:27;2.53;;;1.40;;
3141;SDS011;1581;51.568;6.998;2022-07-29T01:43:03;6.07;;;0.98;;
3141;SDS011;1581;51.568;6.998;2022-07-29T01:45:40;1.48;;;1.15;;
3141;SDS011;1581;51.568;6.998;2022-07-29T01:48:15;4.00;;;1.52;;
3141;SDS011;1581;51.568;6.998;2022-07-29T01:50:50;2.85;;;1.38;;
3141;SDS011;1581;51.568;6.998;2022-07-29T01:53:27;10.00;;;1.30;;
3141;SDS011;1581;51.568;6.998;2022-07-29T01:56:00;2.72;;;1.10;;
3141;SDS011;1581;51.568;6.998;2022-07-29T01:58:30;2.63;;;1.00;;
3141;SDS011;1581;51.568;6.998;2022-07-29T02:01:01;2.72;;;1.23;;
3141;SDS011;1581;51.568;6.998;2022-07-29T02:03:31;5.18;;;1.27;;
3141;SDS011;1581;51.568;6.998;2022-07-29T02:06:02;6.68;;;0.93;;
3141;SDS011;1581;51.568;6.998;2022-07-29T02:08:30;1.45;;;1.05;;
3141;SDS011;1581;51.568;6.998;2022-07-29T02:11:01;10.02;;;1.20;;
3141;SDS011;1581;51.568;6.998;2022-07-29T02:13:33;3.63;;;1.63;;
3141;SDS011;1581;51.568;6.998;2022-07-29T02:16:05;5.20;;;1.20;;
3141;SDS011;1581;51.568;6.998;2022-07-29T02:18:35;4.65;;;1.33;;
3141;SDS011;1581;51.568;6.998;2022-07-29T02:21:05;6.38;;;1.25;;
3141;SDS011;1581;51.568;6.998;2022-07-29T02:23:34;2.03;;;1.20;;
3141;SDS011;1581;51.568;6.998;2022-07-29T02:26:04;1.10;;;1.00;;
3141;SDS011;1581;51.568;6.998;2022-07-29T02:28:33;1.58;;;0.98;;
3141;SDS011;1581;51.568;6.998;2022-07-29T02:31:02;1.10;;;0.80;;
3141;SDS011;1581;51.568;6.998;2022-07-29T02:33:32;1.65;;;1.00;;
3141;SDS011;1581;51.568;6.998;2022-07-29T02:36:01;1.47;;;1.13;;
3141;SDS011;1581;51.568;6.998;2022-07-29T02:38:29;2.20;;;1.10;;
3141;SDS011;1581;51.568;6.998;2022-07-29T02:41:17;3.90;;;1.03;;
3141;SDS011;1581;51.568;6.998;2022-07-29T02:44:02;2.27;;;1.10;;
3141;SDS011;1581;51.568;6.998;2022-07-29T02:46:37;2.10;;;1.00;;
3141;SDS011;1581;51.568;6.998;2022-07-29T02:49:15;2.90;;;1.00;;
3141;SDS011;1581;51.568;6.998;2022-07-29T02:52:00;2.17;;;1.43;;
3141;SDS011;1581;51.568;6.998;2022-07-29T02:54:32;8.47;;;0.97;;
3141;SDS011;1581;51.568;6.998;2022-07-29T02:57:08;1.73;;;1.60;;
3141;SDS011;1581;51.568;6.998;2022-07-29T02:59:41;3.57;;;1.17;;
3141;SDS011;1581;51.568;6.998;2022-07-29T03:02:13;1.53;;;1.03;;
3141;SDS011;1581;51.568;6.998;2022-07-29T03:04:41;2.60;;;1.33;;
3141;SDS011;1581;51.568;6.998;2022-07-29T03:07:12;1.90;;;1.00;;
3141;SDS011;1581;51.568;6.998;2022-07-29T03:09:41;2.83;;;1.20;;
3141;SDS011;1581;51.568;6.998;2022-07-29T03:12:11;5.68;;;1.10;;
3141;SDS011;1581;51.568;6.998;2022-07-29T03:14:40;7.77;;;1.07;;
3141;SDS011;1581;51.568;6.998;2022-07-29T03:17:09;1.43;;;0.97;;
3141;SDS011;1581;51.568;6.998;2022-07-29T03:19:39;1.10;;;1.00;;
3141;SDS011;1581;51.568;6.998;2022-07-29T03:22:07;2.17;;;1.00;;
3141;SDS011;1581;51.568;6.998;2022-07-29T03:24:36;4.23;;;1.63;;
3141;SDS011;1581;51.568;6.998;2022-07-29T03:27:04;5.47;;;1.53;;
3141;SDS011;1581;51.568;6.998;2022-07-29T03:29:32;6.73;;;1.20;;
3141;SDS011;1581;51.568;6.998;2022-07-29T03:32:01;4.73;;;1.67;;
3141;SDS011;1581;51.568;6.998;2022-07-29T03:34:31;2.93;;;1.50;;
3141;SDS011;1581;51.568;6.998;2022-07-29T03:37:00;2.33;;;0.95;;
3141;SDS011;1581;51.568;6.998;2022-07-29T03:39:29;1.20;;;1.00;;
3141;SDS011;1581;51.568;6.998;2022-07-29T03:42:02;3.97;;;1.00;;
3141;SDS011;1581;51.568;6.998;2022-07-29T03:44:34;2.47;;;1.00;;
3141;SDS011;1581;51.568;6.998;2022-07-29T03:47:02;3.20;;;0.83;;
3141;SDS011;1581;51.568;6.998;2022-07-29T03:49:34;3.20;;;1.50;;
3141;SDS011;1581;51.568;6.998;2022-07-29T03:52:06;2.97;;;1.10;;
3141;SDS011;1581;51.568;6.998;2022-07-29T03:54:33;3.15;;;1.20;;
3141;SDS011;1581;51.568;6.998;2022-07-29T03:57:02;5.00;;;1.70;;
3141;SDS011;1581;51.568;6.998;2022-07-29T03:59:32;2.50;;;1.43;;
3141;SDS011;1581;51.568;6.998;2022-07-29T04:02:00;4.13;;;1.33;;
3141;SDS011;1581;51.568;6.998;2022-07-29T04:04:32;2.63;;;1.30;;
3141;SDS011;1581;51.568;6.998;2022-07-29T04:07:00;5.97;;;1.07;;
3141;SDS011;1581;51.568;6.998;2022-07-29T04:09:29;1.93;;;0.97;;
3141;SDS011;1581;51.568;6.998;2022-07-29T04:11:58;7.37;;;1.87;;
3141;SDS011;1581;51.568;6.998;2022-07-29T04:14:27;3.28;;;1.20;;
3141;SDS011;1581;51.568;6.998;2022-07-29T04:16:54;20.48;;;1.50;;
3141;SDS011;1581;51.568;6.998;2022-07-29T04:19:22;3.40;;;1.27;;
3141;SDS011;1581;51.568;6.998;2022-07-29T04:21:51;11.37;;;1.00;;
3141;SDS011;1581;51.568;6.998;2022-07-29T04:24:19;1.93;;;1.10;;
3141;SDS011;1581;51.568;6.998;2022-07-29T04:26:48;6.53;;;0.90;;
3141;SDS011;1581;51.568;6.998;2022-07-29T04:29:16;6.07;;;1.43;;
3141;SDS011;1581;51.568;6.998;2022-07-29T04:31:44;4.73;;;1.10;;
3141;SDS011;1581;51.568;6.998;2022-07-29T04:34:12;1.23;;;0.90;;
3141;SDS011;1581;51.568;6.998;2022-07-29T04:36:41;5.97;;;1.50;;
3141;SDS011;1581;51.568;6.998;2022-07-29T04:39:08;3.83;;;1.20;;
3141;SDS011;1581;51.568;6.998;2022-07-29T04:41:36;7.07;;;1.63;;
3141;SDS011;1581;51.568;6.998;2022-07-29T04:44:06;3.00;;;1.20;;
3141;SDS011;1581;51.568;6.998;2022-07-29T04:46:34;4.33;;;1.60;;
3141;SDS011;1581;51.568;6.998;2022-07-29T04:49:03;1.37;;;1.13;;
3141;SDS011;1581;51.568;6.998;2022-07-29T04:51:30;17.13;;;1.50;;
3141;SDS011;1581;51.568;6.998;2022-07-29T04:53:58;6.30;;;2.00;;
3141;SDS011;1581;51.568;6.998;2022-07-29T04:56:26;6.80;;;1.63;;
3141;SDS011;1581;51.568;6.998;2022-07-29T04:58:54;2.33;;;1.63;;
3141;SDS011;1581;51.568;6.998;2022-07-29T05:01:24;3.63;;;1.60;;
3141;SDS011;1581;51.568;6.998;2022-07-29T05:03:51;6.90;;;1.60;;
3141;SDS011;1581;51.568;6.998;2022-07-29T05:06:19;10.40;;;1.37;;
3141;SDS011;1581;51.568;6.998;2022-07-29T05:08:47;7.77;;;1.50;;
3141;SDS011;1581;51.568;6.998;2022-07-29T05:11:14;4.20;;;1.10;;
3141;SDS011;1581;51.568;6.998;2022-07-29T05:13:43;3.63;;;1.40;;
3141;SDS011;1581;51.568;6.998;2022-07-29T05:16:10;2.83;;;1.50;;
3141;SDS011;1581;51.568;6.998;2022-07-29T05:18:40;1.73;;;1.43;;
3141;SDS011;1581;51.568;6.998;2022-07-29T05:21:07;2.70;;;1.60;;
3141;SDS011;1581;51.568;6.998;2022-07-29T05:23:35;2.30;;;1.13;;
3141;SDS011;1581;51.568;6.998;2022-07-29T05:26:03;1.57;;;1.47;;
3141;SDS011;1581;51.568;6.998;2022-07-29T05:28:32;2.80;;;1.70;;
3141;SDS011;1581;51.568;6.998;2022-07-29T05:31:00;2.50;;;2.30;;
3141;SDS011;1581;51.568;6.998;2022-07-29T05:33:28;1.40;;;1.30;;
3141;SDS011;1581;51.568;6.998;2022-07-29T05:35:58;3.97;;;1.37;;
3141;SDS011;1581;51.568;6.998;2022-07-29T05:38:26;3.33;;;1.43;;
3141;SDS011;1581;51.568;6.998;2022-07-29T05:40:55;2.53;;;1.20;;
3141;SDS011;1581;51.568;6.998;2022-07-29T05:43:24;2.90;;;1.17;;
3141;SDS011;1581;51.568;6.998;2022-07-29T05:45:52;4.10;;;1.50;;
3141;SDS011;1581;51.568;6.998;2022-07-29T05:48:20;2.70;;;0.90;;
3141;SDS011;1581;51.568;6.998;2022-07-29T05:50:51;7.03;;;1.10;;
3141;SDS011;1581;51.568;6.998;2022-07-29T05:53:20;7.23;;;1.60;;
3141;SDS011;1581;51.568;6.998;2022-07-29T05:55:49;4.07;;;1.50;;
3141;SDS011;1581;51.568;6.998;2022-07-29T05:58:17;12.33;;;1.60;;
3141;SDS011;1581;51.568;6.998;2022-07-29T06:00:45;8.00;;;1.53;;
3141;SDS011;1581;51.568;6.998;2022-07-29T06:03:13;3.57;;;1.33;;
3141;SDS011;1581;51.568;6.998;2022-07-29T06:05:40;10.27;;;1.50;;
3141;SDS011;1581;51.568;6.998;2022-07-29T06:08:08;4.27;;;1.60;;
3141;SDS011;1581;51.568;6.998;2022-07-29T06:10:37;4.77;;;1.83;;
3141;SDS011;1581;51.568;6.998;2022-07-29T06:13:05;6.73;;;1.70;;
3141;SDS011;1581;51.568;6.998;2022-07-29T06:15:32;2.80;;;1.47;;
3141;SDS011;1581;51.568;6.998;2022-07-29T06:18:00;3.27;;;1.53;;
3141;SDS011;1581;51.568;6.998;2022-07-29T06:20:28;2.70;;;1.67;;
3141;SDS011;1581;51.568;6.998;2022-07-29T06:22:56;5.03;;;1.90;;
3141;SDS011;1581;51.568;6.998;2022-07-29T06:25:24;5.73;;;1.43;;
3141;SDS011;1581;51.568;6.998;2022-07-29T06:27:55;3.03;;;1.70;;
3141;SDS011;1581;51.568;6.998;2022-07-29T06:30:23;9.03;;;2.50;;
3141;SDS011;1581;51.568;6.998;2022-07-29T06:32:50;2.00;;;1.60;;
3141;SDS011;1581;51.568;6.998;2022-07-29T06:35:18;1.60;;;1.50;;
3141;SDS011;1581;51.568;6.998;2022-07-29T06:37:46;3.77;;;1.70;;
3141;SDS011;1581;51.568;6.998;2022-07-29T06:40:14;2.83;;;1.70;;
3141;SDS011;1581;51.568;6.998;2022-07-29T06:43:00;7.23;;;2.03;;
3141;SDS011;1581;51.568;6.998;2022-07-29T06:45:28;4.03;;;2.00;;
3141;SDS011;1581;51.568;6.998;2022-07-29T06:47:56;5.23;;;2.17;;
3141;SDS011;1581;51.568;6.998;2022-07-29T06:50:27;5.53;;;2.30;;
3141;SDS011;1581;51.568;6.998;2022-07-29T06:53:01;6.40;;;1.80;;
3141;SDS011;1581;51.568;6.998;2022-07-29T06:55:31;3.80;;;1.63;;
3141;SDS011;1581;51.568;6.998;2022-07-29T06:58:00;3.97;;;1.93;;
3141;SDS011;1581;51.568;6.998;2022-07-29T07:00:28;9.93;;;1.73;;
3141;SDS011;1581;51.568;6.998;2022-07-29T07:02:56;3.27;;;2.00;;
3141;SDS011;1581;51.568;6.998;2022-07-29T07:05:24;5.17;;;1.80;;
3141;SDS011;1581;51.568;6.998;2022-07-29T07:07:51;1.63;;;1.53;;
3141;SDS011;1581;51.568;6.998;2022-07-29T07:10:19;5.82;;;2.35;;
3141;SDS011;1581;51.568;6.998;2022-07-29T07:12:47;4.57;;;1.70;;
3141;SDS011;1581;51.568;6.998;2022-07-29T07:15:17;2.10;;;1.73;;
3141;SDS011;1581;51.568;6.998;2022-07-29T07:17:47;4.63;;;2.10;;
3141;SDS011;1581;51.568;6.998;2022-07-29T07:20:15;1.65;;;1.50;;
3141;SDS011;1581;51.568;6.998;2022-07-29T07:22:43;5.40;;;1.47;;
3141;SDS011;1581;51.568;6.998;2022-07-29T07:25:12;4.72;;;1.20;;
3141;SDS011;1581;51.568;6.998;2022-07-29T07:27:42;5.03;;;1.70;;
3141;SDS011;1581;51.568;6.998;2022-07-29T07:30:10;5.43;;;1.65;;
3141;SDS011;1581;51.568;6.998;2022-07-29T07:32:42;1.77;;;1.58;;
3141;SDS011;1581;51.568;6.998;2022-07-29T07:35:10;3.58;;;1.95;;
3141;SDS011;1581;51.568;6.998;2022-07-29T07:37:39;1.70;;;1.60;;
3141;SDS011;1581;51.568;6.998;2022-07-29T07:40:07;2.25;;;1.90;;
3141;SDS011;1581;51.568;6.998;2022-07-29T07:42:37;23.48;;;1.80;;
3141;SDS011;1581;51.568;6.998;2022-07-29T07:45:06;2.15;;;1.70;;
3141;SDS011;1581;51.568;6.998;2022-07-29T07:47:35;9.13;;;2.38;;
3141;SDS011;1581;51.568;6.998;2022-07-29T07:50:05;2.42;;;1.58;;
3141;SDS011;1581;51.568;6.998;2022-07-29T07:52:46;4.00;;;2.10;;
3141;SDS011;1581;51.568;6.998;2022-07-29T07:55:16;5.18;;;2.10;;
3141;SDS011;1581;51.568;6.998;2022-07-29T07:57:43;3.38;;;2.17;;
3141;SDS011;1581;51.568;6.998;2022-07-29T08:00:13;4.18;;;2.00;;
3141;SDS011;1581;51.568;6.998;2022-07-29T08:02:43;1.77;;;1.58;;
3141;SDS011;1581;51.568;6.998;2022-07-29T08:05:13;4.30;;;1.90;;
3141;SDS011;1581;51.568;6.998;2022-07-29T08:07:43;2.75;;;1.50;;
3141;SDS011;1581;51.568;6.998;2022-07-29T08:10:12;3.67;;;1.52;;
3141;SDS011;1581;51.568;6.998;2022-07-29T08:12:40;5.30;;;1.45;;
3141;SDS011;1581;51.568;6.998;2022-07-29T08:15:08;6.97;;;1.80;;
3141;SDS011;1581;51.568;6.998;2022-07-29T08:17:36;4.47;;;1.77;;
3141;SDS011;1581;51.568;6.998;2022-07-29T08:20:04;7.30;;;2.00;;
3141;SDS011;1581;51.568;6.998;2022-07-29T08:22:34;6.45;;;1.85;;
3141;SDS011;1581;51.568;6.998;2022-07-29T08:25:01;7.53;;;1.80;;
3141;SDS011;1581;51.568;6.998;2022-07-29T08:27:30;5.65;;;2.22;;
3141;SDS011;1581;51.568;6.998;2022-07-29T08:29:58;5.35;;;2.00;;
3141;SDS011;1581;51.568;6.998;2022-07-29T08:32:26;4.57;;;2.10;;
3141;SDS011;1581;51.568;6.998;2022-07-29T08:34:56;5.38;;;2.22;;
3141;SDS011;1581;51.568;6.998;2022-07-29T08:37:25;4.60;;;1.85;;
3141;SDS011;1581;51.568;6.998;2022-07-29T08:39:55;4.57;;;2.28;;
3141;SDS011;1581;51.568;6.998;2022-07-29T08:42:23;5.50;;;1.95;;
3141;SDS011;1581;51.568;6.998;2022-07-29T08:44:51;5.47;;;1.67;;
3141;SDS011;1581;51.568;6.998;2022-07-29T08:47:19;3.10;;;1.65;;
3141;SDS011;1581;51.568;6.998;2022-07-29T08:49:47;6.32;;;1.75;;
3141;SDS011;1581;51.568;6.998;2022-07-29T08:52:15;5.85;;;2.40;;
3141;SDS011;1581;51.568;6.998;2022-07-29T08:54:43;3.22;;;1.95;;
3141;SDS011;1581;51.568;6.998;2022-07-29T08:57:13;4.20;;;2.40;;
3141;SDS011;1581;51.568;6.998;2022-07-29T08:59:42;10.02;;;2.40;;
3141;SDS011;1581;51.568;6.998;2022-07-29T09:02:15;5.57;;;2.53;;
3141;SDS011;1581;51.568;6.998;2022-07-29T09:04:46;4.75;;;2.50;;
3141;SDS011;1581;51.568;6.998;2022-07-29T09:07:15;3.30;;;2.60;;
3141;SDS011;1581;51.568;6.998;2022-07-29T09:09:45;12.63;;;2.72;;
3141;SDS011;1581;51.568;6.998;2022-07-29T09:12:15;14.23;;;2.67;;
3141;SDS011;1581;51.568;6.998;2022-07-29T09:14:43;5.28;;;2.10;;
3141;SDS011;1581;51.568;6.998;2022-07-29T09:17:10;12.98;;;2.60;;
3141;SDS011;1581;51.568;6.998;2022-07-29T09:19:38;5.80;;;2.42;;
3141;SDS011;1581;51.568;6.998;2022-07-29T09:22:06;5.15;;;2.47;;
3141;SDS011;1581;51.568;6.998;2022-07-29T09:24:38;4.85;;;2.20;;
3141;SDS011;1581;51.568;6.998;2022-07-29T09:27:10;5.13;;;2.85;;
3141;SDS011;1581;51.568;6.998;2022-07-29T09:29:58;26.42;;;3.13;;
3141;SDS011;1581;51.568;6.998;2022-07-29T09:32:27;7.05;;;2.00;;
3141;SDS011;1581;51.568;6.998;2022-07-29T09:35:13;6.18;;;2.40;;
3141;SDS011;1581;51.568;6.998;2022-07-29T09:37:45;8.80;;;2.30;;
3141;SDS011;1581;51.568;6.998;2022-07-29T09:40:14;8.30;;;2.72;;
3141;SDS011;1581;51.568;6.998;2022-07-29T09:42:45;4.72;;;2.58;;
3141;SDS011;1581;51.568;6.998;2022-07-29T09:45:25;2.42;;;2.17;;
3141;SDS011;1581;51.568;6.998;2022-07-29T09:48:12;12.13;;;3.05;;
3141;SDS011;1581;51.568;6.998;2022-07-29T09:50:43;4.65;;;2.47;;
3141;SDS011;1581;51.568;6.998;2022-07-29T09:53:12;6.65;;;3.15;;
3141;SDS011;1581;51.568;6.998;2022-07-29T09:55:56;4.65;;;2.80;;
3141;SDS011;1581;51.568;6.998;2022-07-29T09:58:26;5.00;;;2.90;;
3141;SDS011;1581;51.568;6.998;2022-07-29T10:00:54;4.28;;;2.42;;
3141;SDS011;1581;51.568;6.998;2022-07-29T10:03:22;5.07;;;3.05;;
3141;SDS011;1581;51.568;6.998;2022-07-29T10:06:03;4.25;;;2.65;;
3141;SDS011;1581;51.568;6.998;2022-07-29T10:08:35;6.18;;;3.13;;
3141;SDS011;1581;51.568;6.998;2022-07-29T10:11:08;5.47;;;3.08;;
3141;SDS011;1581;51.568;6.998;2022-07-29T10:13:39;6.32;;;2.78;;
3141;SDS011;1581;51.568;6.998;2022-07-29T10:16:08;3.30;;;2.78;;
3141;SDS011;1581;51.568;6.998;2022-07-29T10:18:38;2.55;;;2.35;;
3141;SDS011;1581;51.568;6.998;2022-07-29T10:21:07;3.38;;;2.40;;
3141;SDS011;1581;51.568;6.998;2022-07-29T10:23:35;7.47;;;3.05;;
3141;SDS011;1581;51.568;6.998;2022-07-29T10:26:03;6.70;;;2.13;;
3141;SDS011;1581;51.568;6.998;2022-07-29T10:28:41;11.20;;;2.58;;
3141;SDS011;1581;51.568;6.998;2022-07-29T10:31:38;5.43;;;2.53;;
3141;SDS011;1581;51.568;6.998;2022-07-29T10:35:01;6.80;;;2.50;;
3141;SDS011;1581;51.568;6.998;2022-07-29T10:44:30;3.35;;;2.38;;
3141;SDS011;1581;51.568;6.998;2022-07-29T10:46:58;12.48;;;2.65;;
3141;SDS011;1581;51.568;6.998;2022-07-29T10:49:26;5.97;;;2.55;;
3141;SDS011;1581;51.568;6.998;2022-07-29T10:51:55;5.93;;;2.38;;
3141;SDS011;1581;51.568;6.998;2022-07-29T10:54:41;2.42;;;2.22;;
3141;SDS011;1581;51.568;6.998;2022-07-29T10:57:20;8.13;;;2.30;;
3141;SDS011;1581;51.568;6.998;2022-07-29T11:02:54;9.70;;;2.28;;
3141;SDS011;1581;51.568;6.998;2022-07-29T11:05:23;2.53;;;2.33;;
3141;SDS011;1581;51.568;6.998;2022-07-29T11:10:51;4.70;;;2.83;;
3141;SDS011;1581;51.568;6.998;2022-07-29T11:13:45;5.03;;;3.25;;
3141;SDS011;1581;51.568;6.998;2022-07-29T11:16:17;6.55;;;3.03;;
3141;SDS011;1581;51.568;6.998;2022-07-29T11:21:47;13.13;;;3.03;;
3141;SDS011;1581;51.568;6.998;2022-07-29T11:24:17;8.20;;;3.08;;
3141;SDS011;1581;51.568;6.998;2022-07-29T11:29:38;4.65;;;3.08;;
3141;SDS011;1581;51.568;6.998;2022-07-29T11:32:16;4.47;;;2.13;;
3141;SDS011;1581;51.568;6.998;2022-07-29T11:34:46;5.80;;;2.35;;
3141;SDS011;1581;51.568;6.998;2022-07-29T11:37:19;2.38;;;2.17;;
3141;SDS011;1581;51.568;6.998;2022-07-29T11:42:50;11.13;;;2.33;;
3141;SDS011;1581;51.568;6.998;2022-07-29T11:45:20;2.08;;;1.70;;
3141;SDS011;1581;51.568;6.998;2022-07-29T11:47:55;7.38;;;2.05;;
3141;SDS011;1581;51.568;6.998;2022-07-29T11:50:31;7.80;;;2.95;;
3141;SDS011;1581;51.568;6.998;2022-07-29T11:53:02;5.35;;;2.03;;
3141;SDS011;1581;51.568;6.998;2022-07-29T11:55:37;7.18;;;2.17;;
3141;SDS011;1581;51.568;6.998;2022-07-29T11:58:06;17.35;;;2.28;;
3141;SDS011;1581;51.568;6.998;2022-07-29T12:00:35;9.23;;;1.60;;
3141;SDS011;1581;51.568;6.998;2022-07-29T12:03:08;2.63;;;1.95;;
3141;SDS011;1581;51.568;6.998;2022-07-29T12:05:40;6.35;;;1.55;;
3141;SDS011;1581;51.568;6.998;2022-07-29T12:08:11;8.25;;;1.50;;
3141;SDS011;1581;51.568;6.998;2022-07-29T12:10:44;2.85;;;1.65;;
3141;SDS011;1581;51.568;6.998;2022-07-29T12:13:13;7.63;;;1.63;;
3141;SDS011;1581;51.568;6.998;2022-07-29T12:15:41;12.65;;;1.45;;
3141;SDS011;1581;51.568;6.998;2022-07-29T12:18:23;2.05;;;1.20;;
3141;SDS011;1581;51.568;6.998;2022-07-29T12:20:57;3.85;;;1.52;;
3141;SDS011;1581;51.568;6.998;2022-07-29T12:23:28;1.77;;;1.65;;
3141;SDS011;1581;51.568;6.998;2022-07-29T12:25:59;7.72;;;1.90;;
3141;SDS011;1581;51.568;6.998;2022-07-29T12:28:31;3.63;;;1.85;;
3141;SDS011;1581;51.568;6.998;2022-07-29T12:31:04;2.75;;;1.70;;
3141;SDS011;1581;51.568;6.998;2022-07-29T12:33:33;4.43;;;2.25;;
3141;SDS011;1581;51.568;6.998;2022-07-29T12:36:01;4.35;;;1.75;;
3141;SDS011;1581;51.568;6.998;2022-07-29T12:38:30;11.35;;;1.70;;
3141;SDS011;1581;51.568;6.998;2022-07-29T12:40:59;4.18;;;1.20;;
3141;SDS011;1581;51.568;6.998;2022-07-29T12:43:27;5.55;;;1.58;;
3141;SDS011;1581;51.568;6.998;2022-07-29T12:45:55;6.70;;;1.88;;
3141;SDS011;1581;51.568;6.998;2022-07-29T12:48:34;3.08;;;1.60;;
3141;SDS011;1581;51.568;6.998;2022-07-29T12:51:03;6.65;;;2.33;;
3141;SDS011;1581;51.568;6.998;2022-07-29T12:53:33;6.00;;;1.75;;
3141;SDS011;1581;51.568;6.998;2022-07-29T12:56:02;1.65;;;1.50;;
3141;SDS011;1581;51.568;6.998;2022-07-29T12:58:33;5.60;;;1.95;;
3141;SDS011;1581;51.568;6.998;2022-07-29T13:01:09;3.13;;;2.33;;
3141;SDS011;1581;51.568;6.998;2022-07-29T13:03:48;8.48;;;2.13;;
3141;SDS011;1581;51.568;6.998;2022-07-29T13:06:31;2.65;;;1.75;;
3141;SDS011;1581;51.568;6.998;2022-07-29T13:09:08;3.17;;;1.95;;
3141;SDS011;1581;51.568;6.998;2022-07-29T13:11:39;10.60;;;2.10;;
3141;SDS011;1581;51.568;6.998;2022-07-29T13:14:10;1.98;;;1.63;;
3141;SDS011;1581;51.568;6.998;2022-07-29T13:19:39;4.15;;;1.58;;
3141;SDS011;1581;51.568;6.998;2022-07-29T13:22:08;7.45;;;2.20;;
3141;SDS011;1581;51.568;6.998;2022-07-29T13:24:47;3.90;;;2.00;;
3141;SDS011;1581;51.568;6.998;2022-07-29T13:27:17;12.32;;;2.28;;
3141;SDS011;1581;51.568;6.998;2022-07-29T13:29:47;7.50;;;1.77;;
3141;SDS011;1581;51.568;6.998;2022-07-29T13:32:16;7.05;;;2.17;;
3141;SDS011;1581;51.568;6.998;2022-07-29T13:34:45;8.68;;;2.92;;
3141;SDS011;1581;51.568;6.998;2022-07-29T13:37:13;5.47;;;2.15;;
3141;SDS011;1581;51.568;6.998;2022-07-29T13:39:41;4.78;;;2.30;;
3141;SDS011;1581;51.568;6.998;2022-07-29T13:42:09;5.63;;;1.95;;
3141;SDS011;1581;51.568;6.998;2022-07-29T13:44:38;3.03;;;2.17;;
3141;SDS011;1581;51.568;6.998;2022-07-29T13:47:07;3.53;;;2.00;;
3141;SDS011;1581;51.568;6.998;2022-07-29T13:49:35;8.88;;;2.25;;
3141;SDS011;1581;51.568;6.998;2022-07-29T13:52:04;3.83;;;1.98;;
3141;SDS011;1581;51.568;6.998;2022-07-29T13:54:36;2.20;;;2.03;;
3141;SDS011;1581;51.568;6.998;2022-07-29T13:57:04;9.70;;;2.28;;
3141;SDS011;1581;51.568;6.998;2022-07-29T13:59:33;2.22;;;1.83;;
3141;SDS011;1581;51.568;6.998;2022-07-29T14:02:01;1.80;;;1.70;;
3141;SDS011;1581;51.568;6.998;2022-07-29T14:04:28;2.53;;;2.08;;
3141;SDS011;1581;51.568;6.998;2022-07-29T14:06:57;2.40;;;1.80;;
3141;SDS011;1581;51.568;6.998;2022-07-29T14:09:26;3.65;;;1.73;;
3141;SDS011;1581;51.568;6.998;2022-07-29T14:11:54;2.25;;;2.00;;
3141;SDS011;1581;51.568;6.998;2022-07-29T14:14:22;5.95;;;1.80;;
3141;SDS011;1581;51.568;6.998;2022-07-29T14:16:50;2.58;;;1.70;;
3141;SDS011;1581;51.568;6.998;2022-07-29T14:19:17;4.10;;;2.38;;
3141;SDS011;1581;51.568;6.998;2022-07-29T14:21:45;1.52;;;1.42;;
3141;SDS011;1581;51.568;6.998;2022-07-29T14:24:12;4.97;;;2.17;;
3141;SDS011;1581;51.568;6.998;2022-07-29T14:26:42;3.20;;;2.05;;
3141;SDS011;1581;51.568;6.998;2022-07-29T14:29:15;3.33;;;2.22;;
3141;SDS011;1581;51.568;6.998;2022-07-29T14:31:43;2.58;;;2.38;;
3141;SDS011;1581;51.568;6.998;2022-07-29T14:34:11;8.35;;;2.70;;
3141;SDS011;1581;51.568;6.998;2022-07-29T14:36:40;9.57;;;2.60;;
3141;SDS011;1581;51.568;6.998;2022-07-29T14:39:10;4.20;;;2.50;;
3141;SDS011;1581;51.568;6.998;2022-07-29T14:41:42;2.40;;;2.13;;
3141;SDS011;1581;51.568;6.998;2022-07-29T14:44:10;5.75;;;3.30;;
3141;SDS011;1581;51.568;6.998;2022-07-29T14:46:37;3.78;;;2.40;;
3141;SDS011;1581;51.568;6.998;2022-07-29T14:49:05;4.60;;;2.63;;
3141;SDS011;1581;51.568;6.998;2022-07-29T14:51:33;2.95;;;2.33;;
3141;SDS011;1581;51.568;6.998;2022-07-29T14:54:00;4.85;;;1.88;;
3141;SDS011;1581;51.568;6.998;2022-07-29T14:56:28;6.07;;;2.72;;
3141;SDS011;1581;51.568;6.998;2022-07-29T14:58:57;5.63;;;2.63;;
3141;SDS011;1581;51.568;6.998;2022-07-29T15:01:25;3.47;;;2.53;;
3141;SDS011;1581;51.568;6.998;2022-07-29T15:03:52;2.38;;;2.17;;
3141;SDS011;1581;51.568;6.998;2022-07-29T15:06:20;6.18;;;2.22;;
3141;SDS011;1581;51.568;6.998;2022-07-29T15:08:47;9.63;;;2.38;;
3141;SDS011;1581;51.568;6.998;2022-07-29T15:11:15;6.15;;;2.50;;
3141;SDS011;1581;51.568;6.998;2022-07-29T15:13:43;6.43;;;2.38;;
3141;SDS011;1581;51.568;6.998;2022-07-29T15:16:12;9.25;;;2.28;;
3141;SDS011;1581;51.568;6.998;2022-07-29T15:18:40;3.47;;;2.38;;
3141;SDS011;1581;51.568;6.998;2022-07-29T15:21:09;4.25;;;2.60;;
3141;SDS011;1581;51.568;6.998;2022-07-29T15:23:37;3.72;;;2.75;;
3141;SDS011;1581;51.568;6.998;2022-07-29T15:26:04;3.67;;;2.28;;
3141;SDS011;1581;51.568;6.998;2022-07-29T15:28:32;5.47;;;2.03;;
3141;SDS011;1581;51.568;6.998;2022-07-29T15:31:00;6.72;;;2.60;;
3141;SDS011;1581;51.568;6.998;2022-07-29T15:33:29;5.20;;;1.92;;
3141;SDS011;1581;51.568;6.998;2022-07-29T15:35:56;3.40;;;2.22;;
3141;SDS011;1581;51.568;6.998;2022-07-29T15:38:25;2.15;;;1.77;;
3141;SDS011;1581;51.568;6.998;2022-07-29T15:40:53;2.95;;;2.10;;
3141;SDS011;1581;51.568;6.998;2022-07-29T15:43:21;4.93;;;2.72;;
3141;SDS011;1581;51.568;6.998;2022-07-29T15:45:48;4.88;;;2.22;;
3141;SDS011;1581;51.568;6.998;2022-07-29T15:48:31;3.90;;;2.75;;
3141;SDS011;1581;51.568;6.998;2022-07-29T15:50:59;8.77;;;2.15;;
3141;SDS011;1581;51.568;6.998;2022-07-29T15:53:27;4.72;;;1.80;;
3141;SDS011;1581;51.568;6.998;2022-07-29T15:55:55;7.85;;;2.33;;
3141;SDS011;1581;51.568;6.998;2022-07-29T15:58:23;2.35;;;1.85;;
3141;SDS011;1581;51.568;6.998;2022-07-29T16:00:50;5.72;;;2.13;;